createdAt,value
2018-04-09T00:00:25.411Z,3.90
2018-04-09T00:01:25.632Z,4.00
2018-04-09T00:02:25.855Z,4.50
2018-04-09T00:03:26.087Z,4.50
2018-04-09T00:04:26.316Z,3.90
2018-04-09T00:05:26.544Z,4.10
2018-04-09T00:06:26.772Z,4.00
2018-04-09T00:07:27.001Z,3.90
2018-04-09T00:08:27.229Z,3.70
2018-04-09T00:09:27.456Z,3.80
2018-04-09T00:10:27.686Z,4.20
2018-04-09T00:11:27.916Z,4.10
2018-04-09T00:12:28.141Z,3.60
2018-04-09T00:13:28.368Z,3.90
2018-04-09T00:14:28.597Z,4.40
2018-04-09T00:15:28.827Z,4.00
2018-04-09T00:16:29.055Z,3.40
2018-04-09T00:17:29.287Z,4.20
2018-04-09T00:18:29.511Z,3.60
2018-04-09T00:19:29.743Z,3.90
2018-04-09T00:20:29.969Z,3.50
2018-04-09T00:21:30.197Z,3.40
2018-04-09T00:22:30.425Z,4.30
2018-04-09T00:23:30.654Z,3.80
2018-04-09T00:24:30.881Z,3.50
2018-04-09T00:25:31.111Z,3.10
2018-04-09T00:26:31.341Z,3.80
2018-04-09T00:27:31.567Z,4.30
2018-04-09T00:28:31.797Z,3.50
2018-04-09T00:29:32.022Z,3.50
2018-04-09T00:30:32.253Z,3.40
2018-04-09T00:31:32.480Z,3.60
2018-04-09T00:32:32.708Z,4.50
2018-04-09T00:33:32.938Z,3.10
2018-04-09T00:34:33.166Z,3.90
2018-04-09T00:35:33.396Z,4.60
2018-04-09T00:36:33.627Z,3.10
2018-04-09T00:37:33.853Z,3.50
2018-04-09T00:38:34.078Z,3.80
2018-04-09T00:39:34.309Z,3.30
2018-04-09T00:40:34.537Z,3.60
2018-04-09T00:41:34.768Z,3.10
2018-04-09T00:42:34.994Z,3.60
2018-04-09T00:43:35.222Z,3.20
2018-04-09T00:44:35.450Z,2.90
2018-04-09T00:45:35.680Z,3.00
2018-04-09T00:46:35.907Z,3.30
2018-04-09T00:47:36.136Z,3.40
2018-04-09T00:48:36.364Z,3.60
2018-04-09T00:49:36.591Z,3.80
2018-04-09T00:50:36.819Z,3.50
2018-04-09T00:51:37.047Z,3.40
2018-04-09T00:52:37.278Z,4.10
2018-04-09T00:53:37.506Z,3.80
2018-04-09T00:54:37.736Z,3.10
2018-04-09T00:55:37.962Z,3.50
2018-04-09T00:56:38.189Z,3.50
2018-04-09T00:57:38.417Z,3.10
2018-04-09T00:58:38.645Z,3.60
2018-04-09T00:59:38.876Z,3.60
2018-04-09T01:00:39.104Z,2.70
2018-04-09T01:01:39.329Z,3.30
2018-04-09T01:02:39.559Z,3.60
2018-04-09T01:03:39.788Z,3.40
2018-04-09T01:04:40.017Z,2.90
2018-04-09T01:05:40.244Z,3.40
2018-04-09T01:06:40.471Z,3.40
2018-04-09T01:07:40.706Z,4.00
2018-04-09T01:08:40.931Z,3.30
2018-04-09T01:09:41.158Z,3.20
2018-04-09T01:10:41.388Z,2.90
2018-04-09T01:11:41.617Z,3.60
2018-04-09T01:12:41.849Z,3.50
2018-04-09T01:13:42.074Z,3.60
2018-04-09T01:14:42.299Z,3.40
2018-04-09T01:15:42.529Z,3.10
2018-04-09T01:16:42.760Z,3.30
2018-04-09T01:17:42.987Z,3.10
2018-04-09T01:18:43.214Z,3.40
2018-04-09T01:19:43.443Z,3.10
2018-04-09T01:20:43.665Z,3.20
2018-04-09T01:21:43.899Z,3.20
2018-04-09T01:22:44.135Z,3.50
2018-04-09T01:23:44.360Z,3.20
2018-04-09T01:24:44.595Z,3.30
2018-04-09T01:25:44.813Z,3.10
2018-04-09T01:26:45.042Z,3.50
2018-04-09T01:27:45.275Z,3.30
2018-04-09T01:28:45.496Z,2.60
2018-04-09T01:29:45.724Z,4.10
2018-04-09T01:30:45.962Z,3.40
2018-04-09T01:31:46.182Z,3.00
2018-04-09T01:32:46.409Z,3.20
2018-04-09T01:33:46.639Z,3.30
2018-04-09T01:34:46.869Z,3.10
2018-04-09T01:35:47.093Z,3.30
2018-04-09T01:36:47.322Z,3.30
2018-04-09T01:37:47.551Z,3.60
2018-04-09T01:38:47.779Z,3.30
2018-04-09T01:39:48.011Z,3.10
2018-04-09T01:40:48.236Z,3.40
2018-04-09T01:41:48.473Z,3.80
2018-04-09T01:42:48.701Z,3.40
2018-04-09T01:43:48.923Z,4.20
2018-04-09T01:44:49.151Z,3.40
2018-04-09T01:45:49.379Z,3.50
2018-04-09T01:46:49.611Z,3.30
2018-04-09T01:47:49.836Z,2.80
2018-04-09T01:48:50.064Z,3.10
2018-04-09T01:49:50.295Z,3.80
2018-04-09T01:50:50.519Z,3.30
2018-04-09T01:51:50.748Z,3.20
2018-04-09T01:52:50.975Z,3.20
2018-04-09T01:53:51.202Z,3.00
2018-04-09T01:54:51.431Z,3.30
2018-04-09T01:55:51.661Z,2.60
2018-04-09T01:56:51.890Z,3.10
2018-04-09T01:57:52.118Z,3.70
2018-04-09T01:58:52.346Z,3.80
2018-04-09T01:59:52.576Z,3.40
2018-04-09T02:00:52.812Z,3.40
2018-04-09T02:01:53.031Z,3.20
2018-04-09T02:02:53.259Z,3.80
2018-04-09T02:03:53.487Z,3.00
2018-04-09T02:04:53.726Z,3.30
2018-04-09T02:05:53.948Z,3.40
2018-04-09T02:06:54.180Z,3.50
2018-04-09T02:07:54.403Z,3.50
2018-04-09T02:08:54.633Z,3.70
2018-04-09T02:09:54.866Z,2.80
2018-04-09T02:10:55.092Z,4.00
2018-04-09T02:11:55.320Z,3.40
2018-04-09T02:12:55.551Z,3.50
2018-04-09T02:13:55.776Z,3.90
2018-04-09T02:14:56.003Z,3.50
2018-04-09T02:15:56.229Z,3.10
2018-04-09T02:16:56.466Z,3.40
2018-04-09T02:17:56.685Z,3.70
2018-04-09T02:18:56.912Z,3.70
2018-04-09T02:19:57.144Z,4.00
2018-04-09T02:20:57.372Z,3.70
2018-04-09T02:21:57.619Z,3.50
2018-04-09T02:22:57.829Z,3.90
2018-04-09T02:23:58.055Z,3.70
2018-04-09T02:24:58.283Z,3.20
2018-04-09T02:25:58.512Z,3.80
2018-04-09T02:26:58.739Z,4.50
2018-04-09T02:27:58.968Z,4.30
2018-04-09T02:28:59.197Z,4.00
2018-04-09T02:29:59.425Z,4.40
2018-04-09T02:30:59.655Z,4.50
2018-04-09T02:31:59.880Z,3.80
2018-04-09T02:33:00.114Z,4.60
2018-04-09T02:34:00.336Z,4.70
2018-04-09T02:35:00.567Z,4.20
2018-04-09T02:36:00.796Z,5.10
2018-04-09T02:37:01.024Z,5.10
2018-04-09T02:38:01.247Z,5.30
2018-04-09T02:39:01.477Z,4.80
2018-04-09T02:40:01.706Z,4.10
2018-04-09T02:41:01.938Z,4.90
2018-04-09T02:42:02.169Z,5.30
2018-04-09T02:43:02.393Z,5.80
2018-04-09T02:44:02.621Z,5.60
2018-04-09T02:45:02.848Z,5.10
2018-04-09T02:46:03.077Z,4.80
2018-04-09T02:47:03.307Z,4.80
2018-04-09T02:48:03.535Z,5.20
2018-04-09T02:49:03.764Z,5.70
2018-04-09T02:50:03.990Z,5.30
2018-04-09T02:51:04.214Z,5.10
2018-04-09T02:52:04.444Z,6.40
2018-04-09T02:53:04.671Z,5.20
2018-04-09T02:54:04.901Z,5.40
2018-04-09T02:55:05.130Z,4.50
2018-04-09T02:56:05.356Z,4.30
2018-04-09T02:57:05.580Z,4.50
2018-04-09T02:58:05.816Z,4.30
2018-04-09T02:59:06.034Z,5.30
2018-04-09T03:00:06.262Z,4.30
2018-04-09T03:01:06.489Z,4.10
2018-04-09T03:02:06.726Z,4.20
2018-04-09T03:03:06.946Z,5.00
2018-04-09T03:04:07.169Z,5.10
2018-04-09T03:05:07.399Z,4.40
2018-04-09T03:06:07.631Z,4.90
2018-04-09T03:07:07.853Z,5.10
2018-04-09T03:08:08.083Z,4.70
2018-04-09T03:09:08.310Z,4.30
2018-04-09T03:10:08.539Z,3.80
2018-04-09T03:11:08.770Z,3.70
2018-04-09T03:12:09.001Z,3.90
2018-04-09T03:13:09.234Z,4.00
2018-04-09T03:14:09.463Z,3.70
2018-04-09T03:15:09.714Z,4.50
2018-04-09T03:16:09.913Z,3.90
2018-04-09T03:17:10.142Z,3.90
2018-04-09T03:18:10.364Z,3.70
2018-04-09T03:19:10.596Z,3.70
2018-04-09T03:20:10.824Z,3.60
2018-04-09T03:21:11.051Z,3.10
2018-04-09T03:22:11.281Z,3.70
2018-04-09T03:23:11.509Z,4.00
2018-04-09T03:24:11.737Z,5.90
2018-04-09T03:25:11.968Z,3.80
2018-04-09T03:26:12.198Z,3.40
2018-04-09T03:27:12.421Z,3.20
2018-04-09T03:28:12.653Z,3.80
2018-04-09T03:29:12.876Z,3.90
2018-04-09T03:30:13.110Z,4.20
2018-04-09T03:31:13.337Z,3.50
2018-04-09T03:32:13.574Z,3.60
2018-04-09T03:33:13.792Z,3.60
2018-04-09T03:34:14.020Z,4.00
2018-04-09T03:35:14.248Z,3.70
2018-04-09T03:36:14.478Z,2.90
2018-04-09T03:37:14.705Z,3.40
2018-04-09T03:38:14.936Z,3.90
2018-04-09T03:39:15.163Z,3.90
2018-04-09T03:40:15.389Z,3.40
2018-04-09T03:41:15.616Z,4.00
2018-04-09T03:42:15.849Z,3.10
2018-04-09T03:43:16.077Z,4.00
2018-04-09T03:44:16.306Z,3.30
2018-04-09T03:45:16.534Z,3.50
2018-04-09T03:46:16.760Z,3.50
2018-04-09T03:47:16.987Z,3.40
2018-04-09T03:48:17.217Z,4.10
2018-04-09T03:49:17.443Z,4.50
2018-04-09T03:50:17.671Z,5.00
2018-04-09T03:51:17.897Z,3.80
2018-04-09T03:52:18.132Z,4.10
2018-04-09T03:53:18.355Z,3.50
2018-04-09T03:54:18.581Z,4.10
2018-04-09T03:55:18.807Z,3.60
2018-04-09T03:56:19.034Z,4.00
2018-04-09T03:57:19.262Z,3.20
2018-04-09T03:58:19.532Z,3.20
2018-04-09T03:59:19.713Z,3.80
2018-04-09T04:00:19.946Z,3.60
2018-04-09T04:01:20.174Z,3.90
2018-04-09T04:02:20.397Z,3.20
2018-04-09T04:03:20.627Z,4.30
2018-04-09T04:04:20.854Z,3.70
2018-04-09T04:05:21.083Z,4.20
2018-04-09T04:06:21.311Z,3.90
2018-04-09T04:07:21.539Z,4.00
2018-04-09T04:08:21.766Z,4.00
2018-04-09T04:09:21.991Z,3.70
2018-04-09T04:10:22.220Z,4.20
2018-04-09T04:11:22.454Z,4.20
2018-04-09T04:12:22.676Z,4.50
2018-04-09T04:13:22.906Z,3.80
2018-04-09T04:14:23.133Z,3.80
2018-04-09T04:15:23.359Z,4.10
2018-04-09T04:16:23.586Z,4.10
2018-04-09T04:17:23.826Z,3.30
2018-04-09T04:18:24.047Z,3.70
2018-04-09T04:19:24.279Z,4.80
2018-04-09T04:20:24.512Z,4.10
2018-04-09T04:21:24.731Z,4.30
2018-04-09T04:22:24.961Z,5.00
2018-04-09T04:23:25.202Z,3.90
2018-04-09T04:24:25.404Z,3.90
2018-04-09T04:25:25.636Z,3.50
2018-04-09T04:26:25.859Z,4.20
2018-04-09T04:27:26.088Z,3.70
2018-04-09T04:28:26.334Z,4.50
2018-04-09T04:29:26.545Z,4.00
2018-04-09T04:30:26.770Z,4.00
2018-04-09T04:31:26.994Z,4.60
2018-04-09T04:32:27.218Z,3.90
2018-04-09T04:33:27.447Z,4.80
2018-04-09T04:34:27.673Z,3.30
2018-04-09T04:35:27.897Z,3.50
2018-04-09T04:36:28.127Z,3.40
2018-04-09T04:37:28.353Z,3.70
2018-04-09T04:38:28.583Z,4.10
2018-04-09T04:39:28.808Z,3.60
2018-04-09T04:40:29.033Z,3.00
2018-04-09T04:41:29.262Z,3.90
2018-04-09T04:42:29.498Z,3.80
2018-04-09T04:43:29.718Z,4.00
2018-04-09T04:44:29.948Z,4.60
2018-04-09T04:45:30.172Z,4.10
2018-04-09T04:46:30.401Z,4.20
2018-04-09T04:47:30.627Z,4.80
2018-04-09T04:48:30.857Z,4.20
2018-04-09T04:49:31.083Z,3.50
2018-04-09T04:50:31.308Z,4.20
2018-04-09T04:51:31.537Z,4.00
2018-04-09T04:52:31.763Z,3.80
2018-04-09T04:53:31.992Z,4.80
2018-04-09T04:54:32.233Z,3.60
2018-04-09T04:55:32.450Z,3.40
2018-04-09T04:56:32.675Z,5.10
2018-04-09T04:57:32.901Z,4.90
2018-04-09T04:58:33.132Z,3.80
2018-04-09T04:59:33.361Z,4.20
2018-04-09T05:00:33.588Z,4.30
2018-04-09T05:01:33.817Z,3.90
2018-04-09T05:02:34.042Z,4.70
2018-04-09T05:03:34.272Z,4.00
2018-04-09T05:04:34.499Z,3.80
2018-04-09T05:05:34.739Z,4.90
2018-04-09T05:06:34.951Z,4.20
2018-04-09T05:07:35.180Z,3.90
2018-04-09T05:08:35.404Z,4.30
2018-04-09T05:09:35.630Z,4.70
2018-04-09T05:10:35.857Z,5.40
2018-04-09T05:11:36.087Z,4.70
2018-04-09T05:12:36.316Z,5.00
2018-04-09T05:13:36.544Z,5.10
2018-04-09T05:14:36.773Z,4.80
2018-04-09T05:15:36.996Z,4.70
2018-04-09T05:16:37.225Z,5.00
2018-04-09T05:17:37.455Z,4.50
2018-04-09T05:18:37.690Z,4.10
2018-04-09T05:19:37.920Z,4.20
2018-04-09T05:20:38.151Z,4.20
2018-04-09T05:21:38.368Z,3.80
2018-04-09T05:22:38.596Z,4.20
2018-04-09T05:23:38.824Z,4.60
2018-04-09T05:24:39.053Z,4.10
2018-04-09T05:25:39.278Z,4.00
2018-04-09T05:26:39.506Z,4.20
2018-04-09T05:27:39.740Z,4.40
2018-04-09T05:28:39.963Z,4.90
2018-04-09T05:29:40.197Z,3.80
2018-04-09T05:30:40.425Z,4.30
2018-04-09T05:31:40.652Z,4.60
2018-04-09T05:32:40.874Z,4.30
2018-04-09T05:33:41.105Z,3.50
2018-04-09T05:34:41.333Z,4.30
2018-04-09T05:35:41.555Z,4.20
2018-04-09T05:36:41.788Z,4.00
2018-04-09T05:37:42.009Z,4.40
2018-04-09T05:38:42.244Z,4.10
2018-04-09T05:39:42.475Z,3.30
2018-04-09T05:40:42.692Z,3.10
2018-04-09T05:41:42.926Z,3.80
2018-04-09T05:42:43.150Z,3.90
2018-04-09T05:43:43.380Z,3.60
2018-04-09T05:44:43.602Z,3.70
2018-04-09T05:45:43.835Z,4.00
2018-04-09T05:46:44.063Z,3.70
2018-04-09T05:47:44.292Z,3.30
2018-04-09T05:48:44.518Z,3.40
2018-04-09T05:49:44.746Z,4.00
2018-04-09T05:50:44.987Z,3.40
2018-04-09T05:51:45.203Z,3.60
2018-04-09T05:52:45.428Z,3.60
2018-04-09T05:53:45.656Z,3.80
2018-04-09T05:54:45.888Z,4.50
2018-04-09T05:55:46.114Z,4.60
2018-04-09T05:56:46.344Z,6.40
2018-04-09T05:57:46.580Z,4.50
2018-04-09T05:58:46.804Z,4.40
2018-04-09T05:59:47.035Z,4.70
2018-04-09T06:00:47.265Z,5.90
2018-04-09T06:01:47.511Z,3.50
2018-04-09T06:02:47.729Z,3.80
2018-04-09T06:03:47.961Z,4.30
2018-04-09T06:04:48.188Z,3.90
2018-04-09T06:05:48.423Z,3.90
2018-04-09T06:06:48.651Z,4.20
2018-04-09T06:07:48.881Z,4.40
2018-04-09T06:08:49.109Z,4.10
2018-04-09T06:09:49.341Z,4.00
2018-04-09T06:10:49.608Z,4.00
2018-04-09T06:11:49.805Z,4.50
2018-04-09T06:12:50.038Z,4.60
2018-04-09T06:13:50.263Z,4.10
2018-04-09T06:14:50.495Z,3.70
2018-04-09T06:15:50.729Z,4.00
2018-04-09T06:16:50.959Z,4.30
2018-04-09T06:17:51.203Z,4.60
2018-04-09T06:18:51.426Z,4.20
2018-04-09T06:19:51.683Z,3.60
2018-04-09T06:20:51.912Z,4.10
2018-04-09T06:21:52.145Z,4.20
2018-04-09T06:22:52.370Z,3.70
2018-04-09T06:23:52.605Z,4.40
2018-04-09T06:24:52.836Z,4.10
2018-04-09T06:25:53.073Z,4.50
2018-04-09T06:26:53.305Z,4.50
2018-04-09T06:27:53.541Z,4.80
2018-04-09T06:28:53.772Z,4.80
2018-04-09T06:29:54.003Z,5.00
2018-04-09T06:30:54.237Z,4.60
2018-04-09T06:31:54.513Z,4.60
2018-04-09T06:32:54.701Z,4.50
2018-04-09T06:33:54.935Z,5.00
2018-04-09T06:34:55.165Z,5.30
2018-04-09T06:35:55.397Z,4.90
2018-04-09T06:36:55.623Z,4.90
2018-04-09T06:37:55.870Z,5.10
2018-04-09T06:38:56.104Z,5.50
2018-04-09T06:39:56.368Z,5.70
2018-04-09T06:40:56.593Z,5.60
2018-04-09T06:41:56.825Z,6.20
2018-04-09T06:42:57.061Z,6.60
2018-04-09T06:43:57.293Z,6.70
2018-04-09T06:44:57.525Z,6.00
2018-04-09T06:45:57.765Z,6.10
2018-04-09T06:46:58.000Z,6.00
2018-04-09T06:47:58.229Z,5.40
2018-04-09T06:48:58.462Z,6.00
2018-04-09T06:49:58.696Z,5.50
2018-04-09T06:50:58.928Z,5.60
2018-04-09T06:51:59.163Z,5.90
2018-04-09T06:52:59.396Z,6.40
2018-04-09T06:53:59.631Z,4.80
2018-04-09T06:54:59.867Z,5.70
2018-04-09T06:56:00.095Z,5.40
2018-04-09T06:57:00.345Z,4.80
2018-04-09T06:58:00.578Z,4.80
2018-04-09T06:59:00.808Z,5.00
2018-04-09T07:00:01.037Z,4.70
2018-04-09T07:01:01.270Z,5.00
2018-04-09T07:02:01.507Z,5.50
2018-04-09T07:03:01.736Z,5.70
2018-04-09T07:04:01.969Z,5.30
2018-04-09T07:05:02.199Z,5.90
2018-04-09T07:06:02.432Z,6.50
2018-04-09T07:07:02.667Z,6.70
2018-04-09T07:08:02.897Z,7.10
2018-04-09T07:09:03.130Z,7.20
2018-04-09T07:10:03.360Z,7.30
2018-04-09T07:11:03.595Z,7.10
2018-04-09T07:12:03.836Z,8.00
2018-04-09T07:13:04.059Z,7.90
2018-04-09T07:14:04.291Z,8.40
2018-04-09T07:15:04.521Z,5.90
2018-04-09T07:16:04.754Z,6.00
2018-04-09T07:17:04.987Z,6.50
2018-04-09T07:18:05.217Z,8.80
2018-04-09T07:19:05.452Z,7.20
2018-04-09T07:20:05.686Z,8.10
2018-04-09T07:21:05.920Z,6.70
2018-04-09T07:22:06.161Z,7.40
2018-04-09T07:23:06.385Z,8.50
2018-04-09T07:24:06.616Z,7.80
2018-04-09T07:25:06.849Z,6.60
2018-04-09T07:26:07.082Z,7.40
2018-04-09T07:27:07.313Z,5.50
2018-04-09T07:28:07.546Z,5.50
2018-04-09T07:29:07.777Z,6.20
2018-04-09T07:30:08.013Z,5.40
2018-04-09T07:31:08.255Z,5.50
2018-04-09T07:32:08.478Z,5.70
2018-04-09T07:33:08.710Z,7.10
2018-04-09T07:34:08.939Z,7.40
2018-04-09T07:35:09.170Z,6.50
2018-04-09T07:36:09.406Z,6.70
2018-04-09T07:37:09.639Z,6.70
2018-04-09T07:38:09.871Z,6.10
2018-04-09T07:39:10.104Z,6.10
2018-04-09T07:40:10.337Z,6.10
2018-04-09T07:41:10.574Z,6.80
2018-04-09T07:42:10.797Z,6.30
2018-04-09T07:43:11.027Z,7.30
2018-04-09T07:44:11.260Z,6.30
2018-04-09T07:45:11.543Z,6.10
2018-04-09T07:46:11.733Z,6.10
2018-04-09T07:47:11.963Z,6.20
2018-04-09T07:48:12.193Z,6.00
2018-04-09T07:49:12.428Z,7.10
2018-04-09T07:50:12.660Z,6.30
2018-04-09T07:51:12.892Z,6.20
2018-04-09T07:52:13.126Z,5.80
2018-04-09T07:53:13.357Z,5.60
2018-04-09T07:54:13.589Z,5.40
2018-04-09T07:55:13.822Z,6.00
2018-04-09T07:56:14.061Z,5.90
2018-04-09T07:57:14.290Z,5.70
2018-04-09T07:58:14.521Z,5.90
2018-04-09T07:59:14.752Z,6.60
2018-04-09T08:00:14.984Z,5.80
2018-04-09T08:01:15.216Z,5.90
2018-04-09T08:02:15.447Z,4.80
2018-04-09T08:03:15.679Z,5.50
2018-04-09T08:04:15.909Z,5.70
2018-04-09T08:05:16.142Z,5.10
2018-04-09T08:06:16.428Z,6.10
2018-04-09T08:07:16.608Z,5.30
2018-04-09T08:08:16.840Z,5.90
2018-04-09T08:09:17.072Z,5.70
2018-04-09T08:10:17.303Z,5.10
2018-04-09T08:11:17.539Z,5.00
2018-04-09T08:12:17.768Z,6.00
2018-04-09T08:13:18.005Z,5.60
2018-04-09T08:14:18.232Z,4.80
2018-04-09T08:15:18.465Z,5.90
2018-04-09T08:16:18.698Z,5.40
2018-04-09T08:17:18.931Z,5.20
2018-04-09T08:18:19.163Z,5.50
2018-04-09T08:19:19.426Z,5.50
2018-04-09T08:20:19.636Z,5.60
2018-04-09T08:21:19.858Z,5.20
2018-04-09T08:22:20.090Z,5.60
2018-04-09T08:23:20.320Z,5.20
2018-04-09T08:24:20.555Z,5.50
2018-04-09T08:25:20.785Z,5.10
2018-04-09T08:26:21.015Z,5.00
2018-04-09T08:27:21.249Z,4.90
2018-04-09T08:28:21.478Z,5.50
2018-04-09T08:29:21.712Z,4.80
2018-04-09T08:30:21.944Z,5.20
2018-04-09T08:31:22.174Z,5.20
2018-04-09T08:32:22.406Z,4.80
2018-04-09T08:33:22.639Z,5.50
2018-04-09T08:34:22.870Z,5.50
2018-04-09T08:35:23.109Z,5.00
2018-04-09T08:36:23.333Z,4.90
2018-04-09T08:37:23.563Z,5.30
2018-04-09T08:38:23.795Z,5.40
2018-04-09T08:39:24.030Z,5.10
2018-04-09T08:40:24.266Z,5.20
2018-04-09T08:41:24.496Z,6.50
2018-04-09T08:42:24.723Z,5.20
2018-04-09T08:43:24.981Z,5.40
2018-04-09T08:44:25.183Z,5.10
2018-04-09T08:45:25.413Z,4.40
2018-04-09T08:46:25.645Z,5.10
2018-04-09T08:47:25.877Z,5.10
2018-04-09T08:48:26.107Z,4.30
2018-04-09T08:49:26.342Z,5.40
2018-04-09T08:50:26.574Z,5.10
2018-04-09T08:51:26.805Z,4.90
2018-04-09T08:52:27.036Z,5.50
2018-04-09T08:53:27.269Z,5.40
2018-04-09T08:54:27.501Z,5.90
2018-04-09T08:55:27.743Z,5.30
2018-04-09T08:56:27.966Z,5.00
2018-04-09T08:57:28.197Z,4.80
2018-04-09T08:58:28.429Z,6.40
2018-04-09T08:59:28.665Z,4.80
2018-04-09T09:00:28.904Z,5.70
2018-04-09T09:01:29.129Z,4.60
2018-04-09T09:02:29.416Z,4.80
2018-04-09T09:03:29.640Z,5.00
2018-04-09T09:04:29.871Z,5.50
2018-04-09T09:05:30.105Z,5.10
2018-04-09T09:06:30.338Z,4.90
2018-04-09T09:07:30.574Z,5.60
2018-04-09T09:08:30.810Z,4.50
2018-04-09T09:09:31.037Z,5.50
2018-04-09T09:10:31.271Z,4.70
2018-04-09T09:11:31.502Z,4.50
2018-04-09T09:12:31.734Z,4.90
2018-04-09T09:13:31.966Z,5.30
2018-04-09T09:14:32.195Z,5.00
2018-04-09T09:15:32.486Z,4.80
2018-04-09T09:16:32.668Z,5.50
2018-04-09T09:17:32.902Z,5.00
2018-04-09T09:18:33.133Z,5.10
2018-04-09T09:19:33.368Z,4.60
2018-04-09T09:20:33.609Z,4.50
2018-04-09T09:21:33.832Z,5.70
2018-04-09T09:22:34.075Z,5.90
2018-04-09T09:23:34.299Z,4.90
2018-04-09T09:24:34.532Z,5.00
2018-04-09T09:25:34.764Z,5.20
2018-04-09T09:26:35.000Z,5.70
2018-04-09T09:27:35.230Z,4.90
2018-04-09T09:28:35.463Z,5.50
2018-04-09T09:29:35.697Z,5.00
2018-04-09T09:30:35.935Z,5.40
2018-04-09T09:31:36.169Z,5.00
2018-04-09T09:32:36.396Z,6.40
2018-04-09T09:33:36.634Z,5.70
2018-04-09T09:34:36.868Z,6.00
2018-04-09T09:35:37.104Z,6.30
2018-04-09T09:36:37.378Z,6.10
2018-04-09T09:37:37.570Z,6.00
2018-04-09T09:38:37.804Z,6.90
2018-04-09T09:39:38.039Z,5.40
2018-04-09T09:40:38.278Z,5.50
2018-04-09T09:41:38.507Z,5.00
2018-04-09T09:42:38.742Z,5.10
2018-04-09T09:43:38.977Z,4.70
2018-04-09T09:44:39.211Z,5.10
2018-04-09T09:45:39.448Z,5.20
2018-04-09T09:46:39.679Z,5.20
2018-04-09T09:47:39.912Z,6.10
2018-04-09T09:48:40.145Z,5.60
2018-04-09T09:49:40.382Z,5.30
2018-04-09T09:50:40.615Z,5.30
2018-04-09T09:51:40.849Z,6.10
2018-04-09T09:52:41.081Z,5.60
2018-04-09T09:53:41.316Z,5.50
2018-04-09T09:54:41.553Z,4.90
2018-04-09T09:55:41.788Z,5.70
2018-04-09T09:56:42.024Z,5.60
2018-04-09T09:57:42.257Z,5.20
2018-04-09T09:58:42.489Z,5.90
2018-04-09T09:59:42.729Z,5.20
2018-04-09T10:00:42.961Z,5.00
2018-04-09T10:01:43.208Z,5.00
2018-04-09T10:02:43.434Z,4.70
2018-04-09T10:03:43.667Z,5.40
2018-04-09T10:04:43.902Z,4.90
2018-04-09T10:05:44.132Z,4.60
2018-04-09T10:06:44.368Z,5.00
2018-04-09T10:07:44.676Z,5.10
2018-04-09T10:08:44.837Z,5.30
2018-04-09T10:09:45.072Z,4.50
2018-04-09T10:10:45.308Z,4.60
2018-04-09T10:11:45.540Z,5.10
2018-04-09T10:12:45.769Z,4.00
2018-04-09T10:13:46.005Z,4.30
2018-04-09T10:14:46.243Z,3.90
2018-04-09T10:15:46.477Z,4.30
2018-04-09T10:16:46.711Z,4.40
2018-04-09T10:17:46.945Z,4.30
2018-04-09T10:18:47.182Z,4.00
2018-04-09T10:19:47.416Z,4.10
2018-04-09T10:20:47.648Z,3.60
2018-04-09T10:21:47.883Z,3.70
2018-04-09T10:22:48.118Z,3.70
2018-04-09T10:23:48.351Z,3.90
2018-04-09T10:24:48.587Z,4.30
2018-04-09T10:25:48.850Z,4.10
2018-04-09T10:26:49.053Z,4.40
2018-04-09T10:27:49.289Z,3.80
2018-04-09T10:28:49.521Z,4.60
2018-04-09T10:29:49.761Z,5.80
2018-04-09T10:30:49.993Z,4.70
2018-04-09T10:31:50.229Z,6.00
2018-04-09T10:32:50.463Z,5.30
2018-04-09T10:33:50.702Z,5.20
2018-04-09T10:34:50.953Z,5.50
2018-04-09T10:35:51.174Z,4.50
2018-04-09T10:36:51.411Z,4.80
2018-04-09T10:37:51.648Z,4.60
2018-04-09T10:38:51.875Z,4.60
2018-04-09T10:39:52.113Z,4.30
2018-04-09T10:40:52.347Z,4.40
2018-04-09T10:41:52.583Z,4.60
2018-04-09T10:42:52.817Z,5.10
2018-04-09T10:43:53.055Z,4.50
2018-04-09T10:44:53.290Z,4.10
2018-04-09T10:45:53.522Z,4.00
2018-04-09T10:46:53.758Z,4.40
2018-04-09T10:47:53.992Z,4.80
2018-04-09T10:48:54.230Z,4.90
2018-04-09T10:49:54.469Z,5.30
2018-04-09T10:50:54.704Z,4.80
2018-04-09T10:51:54.929Z,5.80
2018-04-09T10:52:55.166Z,5.10
2018-04-09T10:53:55.401Z,5.10
2018-04-09T10:54:55.635Z,5.20
2018-04-09T10:55:55.870Z,5.00
2018-04-09T10:56:56.104Z,5.00
2018-04-09T10:57:56.347Z,5.50
2018-04-09T10:58:56.583Z,6.10
2018-04-09T10:59:56.816Z,5.10
2018-04-09T11:00:57.051Z,4.30
2018-04-09T11:01:57.285Z,5.10
2018-04-09T11:02:57.521Z,4.90
2018-04-09T11:03:57.782Z,4.10
2018-04-09T11:04:57.989Z,4.60
2018-04-09T11:05:58.224Z,5.20
2018-04-09T11:06:58.457Z,4.60
2018-04-09T11:07:58.694Z,5.30
2018-04-09T11:08:58.932Z,4.50
2018-04-09T11:09:59.160Z,5.10
2018-04-09T11:10:59.398Z,4.60
2018-04-09T11:11:59.637Z,4.90
2018-04-09T11:12:59.870Z,4.30
2018-04-09T11:14:00.110Z,4.00
2018-04-09T11:15:00.348Z,4.60
2018-04-09T11:16:00.581Z,4.50
2018-04-09T11:17:00.826Z,4.50
2018-04-09T11:18:01.053Z,4.60
2018-04-09T11:19:01.293Z,4.30
2018-04-09T11:20:01.528Z,4.00
2018-04-09T11:21:01.763Z,4.20
2018-04-09T11:22:02.001Z,4.00
2018-04-09T11:23:02.239Z,4.20
2018-04-09T11:24:02.473Z,3.70
2018-04-09T11:25:02.717Z,4.90
2018-04-09T11:26:02.950Z,5.20
2018-04-09T11:27:03.186Z,4.70
2018-04-09T11:28:03.427Z,4.40
2018-04-09T11:29:03.658Z,4.10
2018-04-09T11:30:03.894Z,4.70
2018-04-09T11:31:04.129Z,4.50
2018-04-09T11:32:04.368Z,4.50
2018-04-09T11:33:04.601Z,4.30
2018-04-09T11:34:04.834Z,3.90
2018-04-09T11:35:05.070Z,4.50
2018-04-09T11:36:05.309Z,4.10
2018-04-09T11:37:05.582Z,3.60
2018-04-09T11:38:05.786Z,4.10
2018-04-09T11:39:06.022Z,3.20
2018-04-09T11:40:06.261Z,4.00
2018-04-09T11:41:06.498Z,6.80
2018-04-09T11:42:06.735Z,4.20
2018-04-09T11:43:06.971Z,5.70
2018-04-09T11:44:07.204Z,4.30
2018-04-09T11:45:07.440Z,4.50
2018-04-09T11:46:07.673Z,5.20
2018-04-09T11:47:07.913Z,6.50
2018-04-09T11:48:08.149Z,3.70
2018-04-09T11:49:08.384Z,3.90
2018-04-09T11:50:08.619Z,4.40
2018-04-09T11:51:08.858Z,3.90
2018-04-09T11:52:09.087Z,3.90
2018-04-09T11:53:09.365Z,3.80
2018-04-09T11:54:09.561Z,3.70
2018-04-09T11:55:09.796Z,3.00
2018-04-09T11:56:10.084Z,3.60
2018-04-09T11:57:10.285Z,3.00
2018-04-09T11:58:10.506Z,3.80
2018-04-09T11:59:10.744Z,3.10
2018-04-09T12:00:10.982Z,3.30
2018-04-09T12:01:11.218Z,3.10
2018-04-09T12:02:11.465Z,2.90
2018-04-09T12:03:11.689Z,2.50
2018-04-09T12:04:11.929Z,3.10
2018-04-09T12:05:12.166Z,3.00
2018-04-09T12:06:12.402Z,3.10
2018-04-09T12:07:12.641Z,3.00
2018-04-09T12:08:12.877Z,2.50
2018-04-09T12:09:13.114Z,2.90
2018-04-09T12:10:13.349Z,2.90
2018-04-09T12:11:13.586Z,2.50
2018-04-09T12:12:13.826Z,3.20
2018-04-09T12:13:14.062Z,2.70
2018-04-09T12:14:14.299Z,3.00
2018-04-09T12:15:14.534Z,3.10
2018-04-09T12:16:14.772Z,3.20
2018-04-09T12:17:15.009Z,3.00
2018-04-09T12:18:15.245Z,3.20
2018-04-09T12:19:15.482Z,3.30
2018-04-09T12:20:15.720Z,2.60
2018-04-09T12:21:15.957Z,3.20
2018-04-09T12:22:16.192Z,3.60
2018-04-09T12:23:16.427Z,2.90
2018-04-09T12:24:16.667Z,3.20
2018-04-09T12:25:16.903Z,3.40
2018-04-09T12:26:17.143Z,3.00
2018-04-09T12:27:17.384Z,3.00
2018-04-09T12:28:17.618Z,2.60
2018-04-09T12:29:17.856Z,3.00
2018-04-09T12:30:18.091Z,2.90
2018-04-09T12:31:18.326Z,3.30
2018-04-09T12:32:18.563Z,2.90
2018-04-09T12:33:18.803Z,2.70
2018-04-09T12:34:19.040Z,2.80
2018-04-09T12:35:19.274Z,2.90
2018-04-09T12:36:19.510Z,3.30
2018-04-09T12:37:19.747Z,3.00
2018-04-09T12:38:19.989Z,2.70
2018-04-09T12:39:20.225Z,2.60
2018-04-09T12:40:20.463Z,3.30
2018-04-09T12:41:20.696Z,3.10
2018-04-09T12:42:20.933Z,3.40
2018-04-09T12:43:21.165Z,3.30
2018-04-09T12:44:21.404Z,2.80
2018-04-09T12:45:21.641Z,2.70
2018-04-09T12:46:21.877Z,3.00
2018-04-09T12:47:22.156Z,3.30
2018-04-09T12:48:22.352Z,2.80
2018-04-09T12:49:22.590Z,3.00
2018-04-09T12:50:22.827Z,3.30
2018-04-09T12:51:23.061Z,2.70
2018-04-09T12:52:23.300Z,2.80
2018-04-09T12:53:23.535Z,2.90
2018-04-09T12:54:23.778Z,2.80
2018-04-09T12:55:24.019Z,3.20
2018-04-09T12:56:24.254Z,3.10
2018-04-09T12:57:24.490Z,3.00
2018-04-09T12:58:24.720Z,2.70
2018-04-09T12:59:24.954Z,3.30
2018-04-09T13:00:25.191Z,2.90
2018-04-09T13:01:25.430Z,3.00
2018-04-09T13:02:25.666Z,3.10
2018-04-09T13:03:25.902Z,2.80
2018-04-09T13:04:26.136Z,2.70
2018-04-09T13:05:26.388Z,2.90
2018-04-09T13:06:26.612Z,2.70
2018-04-09T13:07:26.848Z,3.30
2018-04-09T13:08:27.084Z,3.40
2018-04-09T13:09:27.321Z,3.30
2018-04-09T13:10:27.563Z,2.90
2018-04-09T13:11:27.800Z,3.30
2018-04-09T13:12:28.033Z,3.00
2018-04-09T13:13:28.269Z,3.00
2018-04-09T13:14:28.506Z,2.80
2018-04-09T13:15:28.749Z,3.50
2018-04-09T13:16:28.983Z,2.90
2018-04-09T13:17:29.221Z,2.80
2018-04-09T13:18:29.456Z,3.00
2018-04-09T13:19:29.694Z,3.10
2018-04-09T13:20:29.929Z,3.10
2018-04-09T13:21:30.167Z,2.80